createdAt,value
2019-02-22T00:01:07.646Z,100923.85
2019-02-22T00:04:12.966Z,100927.55
2019-02-22T00:07:18.132Z,100919.73
2019-02-22T00:10:23.488Z,100917.41
2019-02-22T00:13:28.694Z,100913.72
2019-02-22T00:16:33.835Z,100914.38
2019-02-22T00:19:38.996Z,100918.39
2019-02-22T00:22:44.086Z,100914.23
2019-02-22T00:25:49.229Z,100911.44
2019-02-22T00:28:54.396Z,100906.22
2019-02-22T00:31:59.638Z,100911.11
2019-02-22T00:35:04.957Z,100908.84
2019-02-22T00:38:10.186Z,100904.86
2019-02-22T00:41:16.268Z,100900.56
2019-02-22T00:44:22.876Z,100901.05
2019-02-22T00:47:28.069Z,100913.13
2019-02-22T00:50:33.212Z,100909.44
2019-02-22T00:53:38.497Z,100907.08
2019-02-22T00:56:43.609Z,100899.22
2019-02-22T00:59:48.756Z,100903.20
2019-02-22T01:02:53.879Z,100905.56
2019-02-22T01:05:59.045Z,100903.63
2019-02-22T01:09:04.895Z,100904.77
2019-02-22T01:12:11.637Z,100901.50
2019-02-22T01:15:16.792Z,100902.63
2019-02-22T01:18:21.986Z,100905.77
2019-02-22T01:21:27.271Z,100904.94
2019-02-22T01:24:32.479Z,100915.79
2019-02-22T01:27:38.676Z,100918.78
2019-02-22T01:30:43.843Z,100919.47
2019-02-22T01:33:50.118Z,100918.35
2019-02-22T01:36:55.190Z,100935.86
2019-02-22T01:40:00.397Z,100931.88
2019-02-22T01:43:05.553Z,100930.05
2019-02-22T01:46:10.706Z,100934.66
2019-02-22T01:49:15.872Z,100938.62
2019-02-22T01:52:21.013Z,100942.66
2019-02-22T01:55:26.212Z,100939.23
2019-02-22T01:58:31.457Z,100937.12
2019-02-22T02:01:36.610Z,100941.00
2019-02-22T02:04:41.953Z,100947.07
2019-02-22T02:07:47.124Z,100952.23
2019-02-22T02:10:54.478Z,100948.34
2019-02-22T02:14:00.805Z,100950.89
2019-02-22T02:17:06.073Z,100953.13
2019-02-22T02:20:11.666Z,100955.89
2019-02-22T02:23:16.808Z,100956.36
2019-02-22T02:26:21.920Z,100956.59
2019-02-22T02:29:27.043Z,100964.16
2019-02-22T02:32:32.206Z,100961.88
2019-02-22T02:35:37.374Z,100971.32
2019-02-22T02:38:42.594Z,100970.48
2019-02-22T02:41:47.814Z,100971.97
2019-02-22T02:44:53.035Z,100966.06
2019-02-22T02:47:58.263Z,100966.61
2019-02-22T02:51:03.445Z,100969.02
2019-02-22T02:54:08.621Z,100970.97
2019-02-22T02:57:13.712Z,100974.25
2019-02-22T03:00:18.907Z,100967.01
2019-02-22T03:03:24.071Z,100972.28
2019-02-22T03:06:43.713Z,100977.75
2019-02-22T03:09:48.917Z,100971.17
2019-02-22T03:12:55.124Z,100968.41
2019-02-22T03:16:00.183Z,100966.59
2019-02-22T03:19:05.293Z,100970.20
2019-02-22T03:22:10.504Z,100972.80
2019-02-22T03:25:15.681Z,100981.36
2019-02-22T03:28:21.767Z,100987.19
2019-02-22T03:31:26.978Z,100995.20
2019-02-22T03:34:32.126Z,100993.48
2019-02-22T03:37:37.267Z,100989.52
2019-02-22T03:40:42.412Z,100999.17
2019-02-22T03:43:48.611Z,100997.98
2019-02-22T03:46:53.772Z,101003.52
2019-02-22T03:49:58.907Z,101008.70
2019-02-22T03:53:22.992Z,101006.73
2019-02-22T03:56:28.110Z,101012.60
2019-02-22T03:59:33.352Z,101008.22
2019-02-22T04:02:38.529Z,101018.24
2019-02-22T04:05:43.639Z,101019.80
2019-02-22T04:08:48.802Z,101021.38
2019-02-22T04:11:53.891Z,101034.95
2019-02-22T04:14:59.135Z,101031.84
2019-02-22T04:18:04.273Z,101028.41
2019-02-22T04:21:09.512Z,101041.09
2019-02-22T04:24:14.662Z,101048.83
2019-02-22T04:27:19.960Z,101060.11
2019-02-22T04:30:25.109Z,101056.70
2019-02-22T04:33:30.317Z,101067.72
2019-02-22T04:36:35.575Z,101067.00
2019-02-22T04:39:40.792Z,101066.12
2019-02-22T04:42:45.893Z,101058.20
2019-02-22T04:45:51.014Z,101059.98
2019-02-22T04:48:56.221Z,101052.80
2019-02-22T04:52:01.341Z,101047.27
2019-02-22T04:55:06.600Z,101044.72
2019-02-22T04:58:11.713Z,101042.48
2019-02-22T05:01:16.917Z,101043.95
2019-02-22T05:04:22.121Z,101043.48
2019-02-22T05:07:27.313Z,101054.14
2019-02-22T05:10:32.431Z,101061.30
2019-02-22T05:13:37.629Z,101066.06
2019-02-22T05:16:42.817Z,101063.79
2019-02-22T05:19:47.954Z,101058.88
2019-02-22T05:23:03.446Z,101062.86
2019-02-22T05:25:59.927Z,101065.02
2019-02-22T05:29:05.076Z,101069.17
2019-02-22T05:32:10.302Z,101082.02
2019-02-22T05:35:15.491Z,101076.45
2019-02-22T05:38:20.600Z,101098.38
2019-02-22T05:41:25.742Z,101099.05
2019-02-22T05:44:30.986Z,101097.42
2019-02-22T05:47:36.124Z,101098.28
2019-02-22T05:50:41.417Z,101107.56
2019-02-22T05:53:46.556Z,101108.63
2019-02-22T05:56:54.696Z,101109.13
2019-02-22T05:59:58.608Z,101123.38
2019-02-22T06:03:03.710Z,101123.07
2019-02-22T06:06:08.844Z,101122.74
2019-02-22T06:09:14.088Z,101123.73
2019-02-22T06:12:19.239Z,101132.83
2019-02-22T06:15:24.543Z,101136.02
2019-02-22T06:18:29.655Z,101138.51
2019-02-22T06:21:34.894Z,101148.64
2019-02-22T06:24:40.003Z,101159.72
2019-02-22T06:27:46.193Z,101158.23
2019-02-22T06:30:51.374Z,101166.27
2019-02-22T06:33:56.687Z,101167.78
2019-02-22T06:37:02.471Z,101163.07
2019-02-22T06:40:08.793Z,101169.81
2019-02-22T06:43:14.010Z,101170.80
2019-02-22T06:46:19.294Z,101171.14
2019-02-22T06:49:24.568Z,101179.83
2019-02-22T06:52:29.910Z,101185.17
2019-02-22T06:55:35.067Z,101185.70
2019-02-22T06:58:40.346Z,101188.84
2019-02-22T07:01:45.534Z,101193.44
2019-02-22T07:04:50.686Z,101197.31
2019-02-22T07:07:56.898Z,101194.57
2019-02-22T07:11:24.955Z,101197.91
2019-02-22T07:14:30.114Z,101206.01
2019-02-22T07:17:35.226Z,101212.98
2019-02-22T07:20:40.366Z,101213.30
2019-02-22T07:23:45.622Z,101217.30
2019-02-22T07:26:50.806Z,101229.07
2019-02-22T07:29:56.034Z,101227.65
2019-02-22T07:33:01.192Z,101238.50
2019-02-22T07:36:06.417Z,101244.84
2019-02-22T07:39:11.618Z,101251.62
2019-02-22T07:42:16.840Z,101252.48
2019-02-22T07:45:21.990Z,101257.52
2019-02-22T07:48:27.174Z,101268.37
2019-02-22T07:51:32.330Z,101276.23
2019-02-22T07:54:37.548Z,101284.20
2019-02-22T07:57:42.696Z,101293.08
2019-02-22T08:00:48.021Z,101290.85
2019-02-22T08:03:54.232Z,101290.85
2019-02-22T08:06:59.473Z,101288.95
2019-02-22T08:10:05.155Z,101290.45
2019-02-22T08:13:19.257Z,101295.37
2019-02-22T08:16:17.193Z,101297.24
2019-02-22T08:19:22.411Z,101299.16
2019-02-22T08:22:27.578Z,101298.48
2019-02-22T08:25:32.831Z,101307.70
2019-02-22T08:28:38.060Z,101317.83
2019-02-22T08:31:43.242Z,101316.55
2019-02-22T08:34:48.365Z,101304.87
2019-02-22T08:37:53.569Z,101306.02
2019-02-22T08:40:58.706Z,101306.04
2019-02-22T08:44:03.869Z,101311.87
2019-02-22T08:47:09.077Z,101321.48
2019-02-22T08:50:14.578Z,101323.64
2019-02-22T08:53:19.922Z,101334.24
2019-02-22T08:56:25.108Z,101328.06
2019-02-22T08:59:30.513Z,101326.62
2019-02-22T09:02:35.682Z,101336.77
2019-02-22T09:05:40.885Z,101340.70
2019-02-22T09:08:46.310Z,101341.27
2019-02-22T09:11:51.472Z,101333.09
2019-02-22T09:14:56.771Z,101338.49
2019-02-22T09:18:01.890Z,101342.92
2019-02-22T09:21:07.137Z,101339.39
2019-02-22T09:24:12.289Z,101346.34
2019-02-22T09:27:17.348Z,101351.15
2019-02-22T09:30:22.519Z,101352.73
2019-02-22T09:33:27.681Z,101349.03
2019-02-22T09:36:32.912Z,101362.27
2019-02-22T09:39:38.323Z,101366.61
2019-02-22T09:42:43.514Z,101360.98
2019-02-22T09:45:48.729Z,101364.60
2019-02-22T09:48:53.851Z,101370.30
2019-02-22T09:51:58.948Z,101378.23
2019-02-22T09:55:04.170Z,101373.89
2019-02-22T09:58:11.129Z,101381.80
2019-02-22T10:01:16.295Z,101378.34
2019-02-22T10:04:21.459Z,101394.02
2019-02-22T10:07:26.618Z,101395.80
2019-02-22T10:10:31.767Z,101400.78
2019-02-22T10:13:37.027Z,101404.03
2019-02-22T10:16:42.275Z,101410.51
2019-02-22T10:19:47.446Z,101411.89
2019-02-22T10:22:52.638Z,101410.69
2019-02-22T10:25:57.780Z,101412.80
2019-02-22T10:29:03.012Z,101408.20
2019-02-22T10:32:08.180Z,101410.75
2019-02-22T10:35:13.459Z,101416.82
2019-02-22T10:38:18.780Z,101416.71
2019-02-22T10:41:23.892Z,101419.64
2019-02-22T10:44:29.037Z,101420.99
2019-02-22T10:47:34.138Z,101420.09
2019-02-22T10:50:39.347Z,101415.66
2019-02-22T10:53:44.439Z,101420.19
2019-02-22T10:56:49.632Z,101422.73
2019-02-22T10:59:54.734Z,101425.54
2019-02-22T11:02:59.922Z,101437.55
2019-02-22T11:06:05.243Z,101443.20
2019-02-22T11:09:10.452Z,101438.00
2019-02-22T11:12:15.778Z,101437.44
2019-02-22T11:15:20.929Z,101436.89
2019-02-22T11:18:26.036Z,101431.80
2019-02-22T11:21:31.216Z,101436.23
2019-02-22T11:24:36.365Z,101433.70
2019-02-22T11:27:41.516Z,101434.29
2019-02-22T11:30:47.074Z,101437.20
2019-02-22T11:33:52.373Z,101440.98
2019-02-22T11:36:57.593Z,101435.85
2019-02-22T11:40:02.757Z,101432.59
2019-02-22T11:43:07.958Z,101437.37
2019-02-22T11:46:14.107Z,101440.70
2019-02-22T11:49:19.260Z,101443.55
2019-02-22T11:52:24.369Z,101455.56
2019-02-22T11:55:29.587Z,101458.47
2019-02-22T11:58:34.810Z,101463.19
2019-02-22T12:01:40.004Z,101463.93
2019-02-22T12:04:45.306Z,101467.28
2019-02-22T12:07:50.522Z,101473.26
2019-02-22T12:10:55.794Z,101462.09
2019-02-22T12:14:00.996Z,101464.44
2019-02-22T12:17:06.275Z,101469.61
2019-02-22T12:20:11.720Z,101465.77
2019-02-22T12:23:16.938Z,101467.73
2019-02-22T12:26:22.111Z,101463.47
2019-02-22T12:29:27.328Z,101463.02
2019-02-22T12:32:32.507Z,101464.30
2019-02-22T12:35:37.668Z,101470.55
2019-02-22T12:38:42.899Z,101460.77
2019-02-22T12:41:48.113Z,101462.73
2019-02-22T12:45:02.508Z,101459.50
2019-02-22T12:48:00.342Z,101467.99
2019-02-22T12:51:05.511Z,101479.33
2019-02-22T12:54:10.744Z,101471.20
2019-02-22T12:57:15.891Z,101474.73
2019-02-22T13:00:21.052Z,101475.36
2019-02-22T13:03:26.547Z,101485.30
2019-02-22T13:06:31.700Z,101490.36
2019-02-22T13:09:37.224Z,101494.73
2019-02-22T13:12:42.615Z,101500.43
2019-02-22T13:15:47.967Z,101505.88
2019-02-22T13:18:53.170Z,101505.38
2019-02-22T13:21:58.428Z,101504.34
2019-02-22T13:25:03.724Z,101509.72
2019-02-22T13:28:08.887Z,101513.62
2019-02-22T13:31:14.066Z,101510.69
2019-02-22T13:34:19.273Z,101501.08
2019-02-22T13:37:25.504Z,101505.47
2019-02-22T13:40:31.753Z,101507.08
2019-02-22T13:43:36.973Z,101511.22
2019-02-22T13:46:42.140Z,101507.66
2019-02-22T13:49:47.598Z,101511.59
2019-02-22T13:52:52.731Z,101515.04
2019-02-22T13:55:57.926Z,101514.91
2019-02-22T13:59:03.083Z,101521.19
2019-02-22T14:02:08.211Z,101516.98
2019-02-22T14:05:13.468Z,101517.92
2019-02-22T14:08:18.738Z,101519.72
2019-02-22T14:11:23.896Z,101523.16
2019-02-22T14:14:29.064Z,101524.92
2019-02-22T14:17:34.239Z,101525.73
2019-02-22T14:20:39.429Z,101534.55
2019-02-22T14:23:44.574Z,101530.98
2019-02-22T14:26:49.774Z,101534.93
2019-02-22T14:29:54.894Z,101536.48
2019-02-22T14:33:00.141Z,101544.86
2019-02-22T14:36:05.281Z,101547.02
2019-02-22T14:39:10.733Z,101556.44
2019-02-22T14:42:16.071Z,101546.27
2019-02-22T14:45:21.300Z,101545.89
2019-02-22T14:48:26.523Z,101549.52
2019-02-22T14:51:31.729Z,101549.71
2019-02-22T14:54:36.949Z,101552.80
2019-02-22T14:57:44.939Z,101560.61
2019-02-22T15:00:49.193Z,101567.48
2019-02-22T15:06:49.710Z,101556.94
2019-02-22T15:09:54.824Z,101567.72
2019-02-22T15:13:00.095Z,101567.72
2019-02-22T15:16:29.526Z,101566.52
2019-02-22T15:19:34.644Z,101572.41
2019-02-22T15:22:39.782Z,101578.27
2019-02-22T15:25:44.929Z,101573.97
2019-02-22T15:28:50.093Z,101577.19
2019-02-22T15:31:55.306Z,101581.03
2019-02-22T15:35:00.492Z,101577.36
2019-02-22T15:38:06.935Z,101582.97
2019-02-22T15:41:12.251Z,101583.05
2019-02-22T15:44:17.518Z,101593.86
2019-02-22T15:47:22.671Z,101594.81
2019-02-22T15:50:27.833Z,101593.94
2019-02-22T15:53:33.079Z,101587.16
2019-02-22T15:56:38.280Z,101586.09
2019-02-22T15:59:43.514Z,101586.91
2019-02-22T16:02:48.675Z,101587.27
2019-02-22T16:05:53.833Z,101589.40
2019-02-22T16:08:58.976Z,101596.98
2019-02-22T16:12:04.048Z,101593.77
2019-02-22T16:15:09.537Z,101597.70
2019-02-22T16:18:14.876Z,101601.44
2019-02-22T16:21:19.995Z,101597.34
2019-02-22T16:24:25.129Z,101596.58
2019-02-22T16:27:30.337Z,101599.32
2019-02-22T16:30:37.146Z,101603.84
2019-02-22T16:33:42.337Z,101601.83
2019-02-22T16:36:47.489Z,101612.11
2019-02-22T16:39:52.635Z,101608.70
2019-02-22T16:42:57.766Z,101605.27
2019-02-22T16:46:03.000Z,101610.50
2019-02-22T16:49:08.098Z,101617.60
2019-02-22T16:52:13.249Z,101615.52
2019-02-22T16:55:18.440Z,101609.31
2019-02-22T16:58:23.670Z,101615.55
2019-02-22T17:01:28.978Z,101617.59
2019-02-22T17:04:35.098Z,101619.02
2019-02-22T17:07:40.281Z,101619.86
2019-02-22T17:10:45.488Z,101621.22
2019-02-22T17:13:50.781Z,101618.03
2019-02-22T17:16:56.014Z,101614.33
2019-02-22T17:20:01.227Z,101618.70
2019-02-22T17:23:06.799Z,101631.84
2019-02-22T17:26:15.232Z,101639.75
2019-02-22T17:29:20.346Z,101642.27
2019-02-22T17:32:26.603Z,101638.73
2019-02-22T17:35:31.756Z,101639.80
2019-02-22T17:38:37.009Z,101652.77
2019-02-22T17:41:42.937Z,101664.70
2019-02-22T17:44:48.185Z,101669.97
2019-02-22T17:47:53.342Z,101668.63
2019-02-22T17:50:59.634Z,101673.31
2019-02-22T17:54:05.006Z,101675.82
2019-02-22T17:57:10.321Z,101676.80
2019-02-22T18:00:17.564Z,101686.09
2019-02-22T18:03:22.805Z,101691.80
2019-02-22T18:06:27.953Z,101689.12
2019-02-22T18:09:33.181Z,101697.50
2019-02-22T18:12:38.289Z,101688.72
2019-02-22T18:15:43.535Z,101700.66
2019-02-22T18:18:48.812Z,101700.61
2019-02-22T18:21:54.033Z,101709.16
2019-02-22T18:24:59.176Z,101710.84
2019-02-22T18:28:04.331Z,101715.17
2019-02-22T18:31:09.477Z,101714.30
2019-02-22T18:34:14.650Z,101717.45
2019-02-22T18:37:19.885Z,101718.27
2019-02-22T18:40:24.975Z,101723.61
2019-02-22T18:43:30.137Z,101725.65
2019-02-22T18:46:35.347Z,101726.81
2019-02-22T18:49:40.446Z,101724.87
2019-02-22T18:52:45.592Z,101731.52
2019-02-22T18:55:50.727Z,101725.90
2019-02-22T18:58:56.355Z,101725.77
2019-02-22T19:02:01.574Z,101728.41
2019-02-22T19:05:08.607Z,101728.73
2019-02-22T19:08:13.756Z,101735.47
2019-02-22T19:11:19.002Z,101734.44
2019-02-22T19:14:24.143Z,101745.52
2019-02-22T19:17:30.618Z,101736.48
2019-02-22T19:20:35.877Z,101742.78
2019-02-22T19:23:41.019Z,101752.66
2019-02-22T19:26:46.190Z,101766.16
2019-02-22T19:29:51.365Z,101767.83
2019-02-22T19:32:56.506Z,101773.02
2019-02-22T19:36:01.714Z,101779.80
2019-02-22T19:39:07.376Z,101783.02
2019-02-22T19:42:13.128Z,101790.14
2019-02-22T19:45:18.315Z,101794.57
2019-02-22T19:48:23.510Z,101795.07
2019-02-22T19:51:28.659Z,101799.94
2019-02-22T19:54:33.759Z,101799.67
2019-02-22T19:57:38.908Z,101816.73
2019-02-22T20:00:44.146Z,101817.50
2019-02-22T20:03:49.349Z,101819.08
2019-02-22T20:06:54.592Z,101828.14
2019-02-22T20:10:00.790Z,101825.77
2019-02-22T20:13:07.050Z,101836.86
2019-02-22T20:16:12.235Z,101845.91
2019-02-22T20:19:17.465Z,101843.82
2019-02-22T20:22:22.800Z,101844.23
2019-02-22T20:25:27.969Z,101848.50
2019-02-22T20:28:35.105Z,101851.21
2019-02-22T20:31:40.070Z,101853.67
2019-02-22T20:34:45.215Z,101859.79
2019-02-22T20:37:53.031Z,101872.44
2019-02-22T20:40:57.517Z,101873.91
2019-02-22T20:44:02.783Z,101891.86
2019-02-22T20:47:08.031Z,101905.03
2019-02-22T20:50:13.276Z,101903.89
2019-02-22T20:53:18.476Z,101912.39
2019-02-22T20:56:24.023Z,101908.98
2019-02-22T20:59:29.303Z,101918.12
2019-02-22T21:02:34.480Z,101918.38
2019-02-22T21:05:39.739Z,101917.26
2019-02-22T21:08:44.935Z,101927.36
2019-02-22T21:11:50.084Z,101935.91
2019-02-22T21:14:55.253Z,101932.98
2019-02-22T21:18:00.384Z,101924.64
2019-02-22T21:21:05.488Z,101932.69
2019-02-22T21:24:10.635Z,101932.08
2019-02-22T21:27:15.804Z,101929.69
2019-02-22T21:30:21.064Z,101923.02
2019-02-22T21:33:26.234Z,101923.83
2019-02-22T21:36:31.362Z,101926.51
2019-02-22T21:39:36.568Z,101925.11
2019-02-22T21:42:41.763Z,101927.84
2019-02-22T21:45:46.941Z,101916.91
2019-02-22T21:48:52.125Z,101925.69
2019-02-22T21:51:57.362Z,101933.38
2019-02-22T21:55:02.536Z,101941.25
2019-02-22T21:58:09.009Z,101943.86
2019-02-22T22:01:14.135Z,101952.13
2019-02-22T22:04:19.408Z,101960.62
2019-02-22T22:07:24.556Z,101958.25
2019-02-22T22:10:29.786Z,101961.34
2019-02-22T22:13:34.907Z,101949.67
2019-02-22T22:16:40.125Z,101943.19
2019-02-22T22:19:45.432Z,101944.20
2019-02-22T22:22:50.587Z,101941.63
2019-02-22T22:25:55.738Z,101946.70
2019-02-22T22:29:00.899Z,101946.93
2019-02-22T22:32:06.041Z,101951.59
2019-02-22T22:35:11.414Z,101953.28
2019-02-22T22:38:16.633Z,101957.14
2019-02-22T22:41:21.840Z,101956.33
2019-02-22T22:44:27.054Z,101952.31
2019-02-22T22:47:32.243Z,101952.47
2019-02-22T22:50:37.371Z,101955.95
2019-02-22T22:53:42.648Z,101951.33
2019-02-22T22:56:47.860Z,101949.87
2019-02-22T22:59:52.991Z,101957.36
2019-02-22T23:02:58.228Z,101955.95
2019-02-22T23:06:03.429Z,101947.72
2019-02-22T23:09:18.738Z,101957.70
2019-02-22T23:12:24.175Z,101963.05
2019-02-22T23:15:29.385Z,101971.96
2019-02-22T23:18:36.027Z,101975.74
2019-02-22T23:21:41.317Z,101978.53
2019-02-22T23:24:46.531Z,101971.18
2019-02-22T23:27:51.747Z,101981.45
2019-02-22T23:30:57.077Z,101972.78
2019-02-22T23:34:02.285Z,101982.63
2019-02-22T23:37:07.421Z,101977.20
2019-02-22T23:40:12.572Z,101973.50
2019-02-22T23:43:17.720Z,101972.63
2019-02-22T23:46:22.939Z,101975.67
2019-02-22T23:49:28.083Z,101980.27
2019-02-22T23:52:33.936Z,101984.54
2019-02-22T23:55:39.170Z,101994.66
2019-02-22T23:58:45.429Z,101987.97
